sensor_id;sensor_type;location;lat;lon;timestamp;P1;P2;P0
61592;PMS5003;70568;51.378;-1.342;2024-01-25T00:02:06;8;6;
61592;PMS5003;70568;51.378;-1.342;2024-01-25T00:04:33;12;8;
61592;PMS5003;70568;51.378;-1.342;2024-01-25T00:07:00;8;7;
61592;PMS5003;70568;51.378;-1.342;2024-01-25T00:09:27;9;8;
61592;PMS5003;70568;51.378;-1.342;2024-01-25T00:11:54;13;10;
61592;PMS5003;70568;51.378;-1.342;2024-01-25T00:14:21;12;8;
61592;PMS5003;70568;51.378;-1.342;2024-01-25T00:16:48;7;7;
61592;PMS5003;70568;51.378;-1.342;2024-01-25T00:19:14;15;10;
61592;PMS5003;70568;51.378;-1.342;2024-01-25T00:21:42;8;7;
61592;PMS5003;70568;51.378;-1.342;2024-01-25T00:24:10;18;15;
61592;PMS5003;70568;51.378;-1.342;2024-01-25T00:26:38;7;7;
61592;PMS5003;70568;51.378;-1.342;2024-01-25T00:29:06;14;12;
61592;PMS5003;70568;51.378;-1.342;2024-01-25T00:31:32;6;5;
61592;PMS5003;70568;51.378;-1.342;2024-01-25T00:34:00;6;6;
61592;PMS5003;70568;51.378;-1.342;2024-01-25T00:36:28;8;8;
61592;PMS5003;70568;51.378;-1.342;2024-01-25T00:38:55;7;7;
61592;PMS5003;70568;51.378;-1.342;2024-01-25T00:41:22;7;6;
61592;PMS5003;70568;51.378;-1.342;2024-01-25T00:43:50;8;7;
61592;PMS5003;70568;51.378;-1.342;2024-01-25T00:46:17;6;6;
61592;PMS5003;70568;51.378;-1.342;2024-01-25T00:48:45;18;13;
61592;PMS5003;70568;51.378;-1.342;2024-01-25T00:51:14;9;6;
61592;PMS5003;70568;51.378;-1.342;2024-01-25T00:53:47;10;8;
61592;PMS5003;70568;51.378;-1.342;2024-01-25T00:56:14;9;6;
61592;PMS5003;70568;51.378;-1.342;2024-01-25T00:58:42;7;7;
61592;PMS5003;70568;51.378;-1.342;2024-01-25T01:01:10;12;11;
61592;PMS5003;70568;51.378;-1.342;2024-01-25T01:03:38;13;11;
61592;PMS5003;70568;51.378;-1.342;2024-01-25T01:06:05;8;7;
61592;PMS5003;70568;51.378;-1.342;2024-01-25T01:08:32;9;9;
61592;PMS5003;70568;51.378;-1.342;2024-01-25T01:10:59;9;9;
61592;PMS5003;70568;51.378;-1.342;2024-01-25T01:13:26;14;12;
61592;PMS5003;70568;51.378;-1.342;2024-01-25T01:15:54;10;8;
61592;PMS5003;70568;51.378;-1.342;2024-01-25T01:18:21;10;9;
61592;PMS5003;70568;51.378;-1.342;2024-01-25T01:20:48;8;8;
61592;PMS5003;70568;51.378;-1.342;2024-01-25T01:23:15;10;10;
61592;PMS5003;70568;51.378;-1.342;2024-01-25T01:25:42;13;12;
61592;PMS5003;70568;51.378;-1.342;2024-01-25T01:28:09;14;12;
61592;PMS5003;70568;51.378;-1.342;2024-01-25T01:30:36;11;8;
61592;PMS5003;70568;51.378;-1.342;2024-01-25T01:33:03;11;11;
61592;PMS5003;70568;51.378;-1.342;2024-01-25T01:35:30;12;12;
61592;PMS5003;70568;51.378;-1.342;2024-01-25T01:37:57;12;12;
61592;PMS5003;70568;51.378;-1.342;2024-01-25T01:40:24;14;13;
61592;PMS5003;70568;51.378;-1.342;2024-01-25T01:42:50;13;12;
61592;PMS5003;70568;51.378;-1.342;2024-01-25T01:45:17;16;15;
61592;PMS5003;70568;51.378;-1.342;2024-01-25T01:47:45;10;9;
61592;PMS5003;70568;51.378;-1.342;2024-01-25T01:50:11;18;15;
61592;PMS5003;70568;51.378;-1.342;2024-01-25T01:52:38;15;13;
61592;PMS5003;70568;51.378;-1.342;2024-01-25T01:55:06;15;15;
61592;PMS5003;70568;51.378;-1.342;2024-01-25T01:57:33;11;9;
61592;PMS5003;70568;51.378;-1.342;2024-01-25T02:00:00;15;12;
61592;PMS5003;70568;51.378;-1.342;2024-01-25T02:02:31;13;10;
61592;PMS5003;70568;51.378;-1.342;2024-01-25T02:04:59;13;11;
61592;PMS5003;70568;51.378;-1.342;2024-01-25T02:07:26;15;13;
61592;PMS5003;70568;51.378;-1.342;2024-01-25T02:09:54;14;10;
61592;PMS5003;70568;51.378;-1.342;2024-01-25T02:12:21;12;10;
61592;PMS5003;70568;51.378;-1.342;2024-01-25T02:14:48;14;11;
61592;PMS5003;70568;51.378;-1.342;2024-01-25T02:17:16;12;10;
61592;PMS5003;70568;51.378;-1.342;2024-01-25T02:19:42;9;8;
61592;PMS5003;70568;51.378;-1.342;2024-01-25T02:22:09;16;13;
61592;PMS5003;70568;51.378;-1.342;2024-01-25T02:24:36;12;11;
61592;PMS5003;70568;51.378;-1.342;2024-01-25T02:27:02;15;9;
61592;PMS5003;70568;51.378;-1.342;2024-01-25T02:29:29;15;12;
61592;PMS5003;70568;51.378;-1.342;2024-01-25T02:31:56;10;9;
61592;PMS5003;70568;51.378;-1.342;2024-01-25T02:34:23;11;10;
61592;PMS5003;70568;51.378;-1.342;2024-01-25T02:36:50;14;9;
61592;PMS5003;70568;51.378;-1.342;2024-01-25T02:39:17;16;11;
61592;PMS5003;70568;51.378;-1.342;2024-01-25T02:41:44;18;15;
61592;PMS5003;70568;51.378;-1.342;2024-01-25T02:44:11;14;12;
61592;PMS5003;70568;51.378;-1.342;2024-01-25T02:46:38;12;10;
61592;PMS5003;70568;51.378;-1.342;2024-01-25T02:49:04;10;9;
61592;PMS5003;70568;51.378;-1.342;2024-01-25T02:51:31;11;7;
61592;PMS5003;70568;51.378;-1.342;2024-01-25T02:53:58;10;9;
61592;PMS5003;70568;51.378;-1.342;2024-01-25T02:56:25;12;9;
61592;PMS5003;70568;51.378;-1.342;2024-01-25T02:58:51;12;9;
61592;PMS5003;70568;51.378;-1.342;2024-01-25T03:01:19;10;9;
61592;PMS5003;70568;51.378;-1.342;2024-01-25T03:03:45;13;10;
61592;PMS5003;70568;51.378;-1.342;2024-01-25T03:06:12;7;7;
61592;PMS5003;70568;51.378;-1.342;2024-01-25T03:08:40;13;11;
61592;PMS5003;70568;51.378;-1.342;2024-01-25T03:11:07;16;12;
61592;PMS5003;70568;51.378;-1.342;2024-01-25T03:13:34;11;9;
61592;PMS5003;70568;51.378;-1.342;2024-01-25T03:16:01;12;10;
61592;PMS5003;70568;51.378;-1.342;2024-01-25T03:18:28;15;12;
61592;PMS5003;70568;51.378;-1.342;2024-01-25T03:20:55;15;12;
61592;PMS5003;70568;51.378;-1.342;2024-01-25T03:23:23;11;8;
61592;PMS5003;70568;51.378;-1.342;2024-01-25T03:25:49;12;12;
61592;PMS5003;70568;51.378;-1.342;2024-01-25T03:28:16;8;8;
61592;PMS5003;70568;51.378;-1.342;2024-01-25T03:30:43;10;8;
61592;PMS5003;70568;51.378;-1.342;2024-01-25T03:33:10;8;6;
61592;PMS5003;70568;51.378;-1.342;2024-01-25T03:35:37;13;10;
61592;PMS5003;70568;51.378;-1.342;2024-01-25T03:38:04;10;7;
61592;PMS5003;70568;51.378;-1.342;2024-01-25T03:40:30;12;10;
61592;PMS5003;70568;51.378;-1.342;2024-01-25T03:42:58;15;12;
61592;PMS5003;70568;51.378;-1.342;2024-01-25T03:45:24;14;10;
61592;PMS5003;70568;51.378;-1.342;2024-01-25T03:47:51;10;8;
61592;PMS5003;70568;51.378;-1.342;2024-01-25T03:50:18;17;14;
61592;PMS5003;70568;51.378;-1.342;2024-01-25T03:52:45;15;14;
61592;PMS5003;70568;51.378;-1.342;2024-01-25T03:55:12;19;15;
61592;PMS5003;70568;51.378;-1.342;2024-01-25T03:57:39;17;15;
61592;PMS5003;70568;51.378;-1.342;2024-01-25T04:00:07;12;10;
61592;PMS5003;70568;51.378;-1.342;2024-01-25T04:02:34;19;15;
61592;PMS5003;70568;51.378;-1.342;2024-01-25T04:05:01;20;19;
61592;PMS5003;70568;51.378;-1.342;2024-01-25T04:07:29;19;16;
61592;PMS5003;70568;51.378;-1.342;2024-01-25T04:09:56;14;11;
61592;PMS5003;70568;51.378;-1.342;2024-01-25T04:12:22;11;10;
61592;PMS5003;70568;51.378;-1.342;2024-01-25T04:14:50;17;14;
61592;PMS5003;70568;51.378;-1.342;2024-01-25T04:17:16;17;13;
61592;PMS5003;70568;51.378;-1.342;2024-01-25T04:19:43;14;12;
61592;PMS5003;70568;51.378;-1.342;2024-01-25T04:22:10;13;11;
61592;PMS5003;70568;51.378;-1.342;2024-01-25T04:24:37;10;10;
61592;PMS5003;70568;51.378;-1.342;2024-01-25T04:27:04;12;10;
61592;PMS5003;70568;51.378;-1.342;2024-01-25T04:29:31;12;10;
61592;PMS5003;70568;51.378;-1.342;2024-01-25T04:31:58;11;9;
61592;PMS5003;70568;51.378;-1.342;2024-01-25T04:34:25;9;7;
61592;PMS5003;70568;51.378;-1.342;2024-01-25T04:36:52;12;12;
61592;PMS5003;70568;51.378;-1.342;2024-01-25T04:39:19;13;10;
61592;PMS5003;70568;51.378;-1.342;2024-01-25T04:41:46;9;7;
61592;PMS5003;70568;51.378;-1.342;2024-01-25T04:44:13;9;7;
61592;PMS5003;70568;51.378;-1.342;2024-01-25T04:46:41;8;8;
61592;PMS5003;70568;51.378;-1.342;2024-01-25T04:49:07;13;9;
61592;PMS5003;70568;51.378;-1.342;2024-01-25T04:51:34;10;7;
61592;PMS5003;70568;51.378;-1.342;2024-01-25T04:54:01;10;8;
61592;PMS5003;70568;51.378;-1.342;2024-01-25T04:56:28;11;10;
61592;PMS5003;70568;51.378;-1.342;2024-01-25T04:58:55;6;6;
61592;PMS5003;70568;51.378;-1.342;2024-01-25T05:01:22;7;6;
61592;PMS5003;70568;51.378;-1.342;2024-01-25T05:03:49;6;4;
61592;PMS5003;70568;51.378;-1.342;2024-01-25T05:06:17;5;5;
61592;PMS5003;70568;51.378;-1.342;2024-01-25T05:08:45;7;7;
61592;PMS5003;70568;51.378;-1.342;2024-01-25T05:11:13;8;8;
61592;PMS5003;70568;51.378;-1.342;2024-01-25T05:13:40;11;9;
61592;PMS5003;70568;51.378;-1.342;2024-01-25T05:16:07;12;11;
61592;PMS5003;70568;51.378;-1.342;2024-01-25T05:18:34;11;11;
61592;PMS5003;70568;51.378;-1.342;2024-01-25T05:21:02;11;11;
61592;PMS5003;70568;51.378;-1.342;2024-01-25T05:23:28;9;9;
61592;PMS5003;70568;51.378;-1.342;2024-01-25T05:25:56;10;9;
61592;PMS5003;70568;51.378;-1.342;2024-01-25T05:28:22;17;16;
61592;PMS5003;70568;51.378;-1.342;2024-01-25T05:30:49;14;13;
61592;PMS5003;70568;51.378;-1.342;2024-01-25T05:33:16;13;10;
61592;PMS5003;70568;51.378;-1.342;2024-01-25T05:35:43;11;11;
61592;PMS5003;70568;51.378;-1.342;2024-01-25T05:38:10;12;12;
61592;PMS5003;70568;51.378;-1.342;2024-01-25T05:40:36;8;8;
61592;PMS5003;70568;51.378;-1.342;2024-01-25T05:43:03;17;14;
61592;PMS5003;70568;51.378;-1.342;2024-01-25T05:45:29;13;12;
61592;PMS5003;70568;51.378;-1.342;2024-01-25T05:47:56;13;10;
61592;PMS5003;70568;51.378;-1.342;2024-01-25T05:50:22;9;8;
61592;PMS5003;70568;51.378;-1.342;2024-01-25T05:52:50;9;8;
61592;PMS5003;70568;51.378;-1.342;2024-01-25T05:55:17;11;10;
61592;PMS5003;70568;51.378;-1.342;2024-01-25T05:57:44;16;12;
61592;PMS5003;70568;51.378;-1.342;2024-01-25T06:00:11;7;7;
61592;PMS5003;70568;51.378;-1.342;2024-01-25T06:02:39;8;8;
61592;PMS5003;70568;51.378;-1.342;2024-01-25T06:05:05;8;7;
61592;PMS5003;70568;51.378;-1.342;2024-01-25T06:07:32;7;7;
61592;PMS5003;70568;51.378;-1.342;2024-01-25T06:09:59;7;7;
61592;PMS5003;70568;51.378;-1.342;2024-01-25T06:12:27;5;5;
61592;PMS5003;70568;51.378;-1.342;2024-01-25T06:14:54;5;4;
61592;PMS5003;70568;51.378;-1.342;2024-01-25T06:17:22;4;4;
61592;PMS5003;70568;51.378;-1.342;2024-01-25T06:19:48;6;5;
61592;PMS5003;70568;51.378;-1.342;2024-01-25T06:22:15;5;5;
61592;PMS5003;70568;51.378;-1.342;2024-01-25T06:24:41;4;4;
61592;PMS5003;70568;51.378;-1.342;2024-01-25T06:27:09;4;4;
61592;PMS5003;70568;51.378;-1.342;2024-01-25T06:29:36;4;3;
61592;PMS5003;70568;51.378;-1.342;2024-01-25T06:32:03;5;5;
61592;PMS5003;70568;51.378;-1.342;2024-01-25T06:34:30;5;5;
61592;PMS5003;70568;51.378;-1.342;2024-01-25T06:36:56;4;4;
61592;PMS5003;70568;51.378;-1.342;2024-01-25T06:39:23;5;5;
61592;PMS5003;70568;51.378;-1.342;2024-01-25T06:41:50;5;5;
61592;PMS5003;70568;51.378;-1.342;2024-01-25T06:44:16;6;5;
61592;PMS5003;70568;51.378;-1.342;2024-01-25T06:46:43;6;6;
61592;PMS5003;70568;51.378;-1.342;2024-01-25T06:49:10;7;7;
61592;PMS5003;70568;51.378;-1.342;2024-01-25T06:51:36;7;7;
61592;PMS5003;70568;51.378;-1.342;2024-01-25T06:54:03;7;7;
61592;PMS5003;70568;51.378;-1.342;2024-01-25T06:56:30;6;6;
61592;PMS5003;70568;51.378;-1.342;2024-01-25T06:58:56;6;5;
61592;PMS5003;70568;51.378;-1.342;2024-01-25T07:01:23;5;5;
61592;PMS5003;70568;51.378;-1.342;2024-01-25T07:03:50;7;7;
61592;PMS5003;70568;51.378;-1.342;2024-01-25T07:06:17;5;5;
61592;PMS5003;70568;51.378;-1.342;2024-01-25T07:08:44;5;5;
61592;PMS5003;70568;51.378;-1.342;2024-01-25T07:11:12;5;5;
61592;PMS5003;70568;51.378;-1.342;2024-01-25T07:13:40;6;6;
61592;PMS5003;70568;51.378;-1.342;2024-01-25T07:16:07;4;4;
61592;PMS5003;70568;51.378;-1.342;2024-01-25T07:18:34;5;5;
61592;PMS5003;70568;51.378;-1.342;2024-01-25T07:21:01;5;5;
61592;PMS5003;70568;51.378;-1.342;2024-01-25T07:23:29;3;3;
61592;PMS5003;70568;51.378;-1.342;2024-01-25T07:25:56;3;2;
61592;PMS5003;70568;51.378;-1.342;2024-01-25T07:28:23;3;3;
61592;PMS5003;70568;51.378;-1.342;2024-01-25T07:30:49;2;2;
61592;PMS5003;70568;51.378;-1.342;2024-01-25T07:33:16;4;3;
61592;PMS5003;70568;51.378;-1.342;2024-01-25T07:35:43;3;3;
61592;PMS5003;70568;51.378;-1.342;2024-01-25T07:38:09;4;4;
61592;PMS5003;70568;51.378;-1.342;2024-01-25T07:40:36;4;4;
61592;PMS5003;70568;51.378;-1.342;2024-01-25T07:43:02;6;6;
61592;PMS5003;70568;51.378;-1.342;2024-01-25T07:45:30;7;7;
61592;PMS5003;70568;51.378;-1.342;2024-01-25T07:47:57;6;6;
61592;PMS5003;70568;51.378;-1.342;2024-01-25T07:50:24;7;7;
61592;PMS5003;70568;51.378;-1.342;2024-01-25T07:52:51;7;7;
61592;PMS5003;70568;51.378;-1.342;2024-01-25T07:55:17;9;9;
61592;PMS5003;70568;51.378;-1.342;2024-01-25T07:57:44;9;9;
61592;PMS5003;70568;51.378;-1.342;2024-01-25T08:00:11;11;9;
61592;PMS5003;70568;51.378;-1.342;2024-01-25T08:02:38;14;13;
61592;PMS5003;70568;51.378;-1.342;2024-01-25T08:05:05;10;10;
61592;PMS5003;70568;51.378;-1.342;2024-01-25T08:07:32;11;10;
61592;PMS5003;70568;51.378;-1.342;2024-01-25T08:09:59;10;10;
61592;PMS5003;70568;51.378;-1.342;2024-01-25T08:12:25;11;10;
61592;PMS5003;70568;51.378;-1.342;2024-01-25T08:14:53;13;13;
61592;PMS5003;70568;51.378;-1.342;2024-01-25T08:17:20;12;12;
61592;PMS5003;70568;51.378;-1.342;2024-01-25T08:19:46;12;11;
61592;PMS5003;70568;51.378;-1.342;2024-01-25T08:22:13;13;13;
61592;PMS5003;70568;51.378;-1.342;2024-01-25T08:24:39;13;13;
61592;PMS5003;70568;51.378;-1.342;2024-01-25T08:27:06;10;9;
61592;PMS5003;70568;51.378;-1.342;2024-01-25T08:29:33;14;12;
61592;PMS5003;70568;51.378;-1.342;2024-01-25T08:32:00;12;12;
61592;PMS5003;70568;51.378;-1.342;2024-01-25T08:34:26;13;13;
61592;PMS5003;70568;51.378;-1.342;2024-01-25T08:36:55;11;11;
61592;PMS5003;70568;51.378;-1.342;2024-01-25T08:39:22;12;12;
61592;PMS5003;70568;51.378;-1.342;2024-01-25T08:41:49;13;11;
61592;PMS5003;70568;51.378;-1.342;2024-01-25T08:44:16;12;11;
61592;PMS5003;70568;51.378;-1.342;2024-01-25T08:46:44;14;13;
61592;PMS5003;70568;51.378;-1.342;2024-01-25T08:49:11;13;12;
61592;PMS5003;70568;51.378;-1.342;2024-01-25T08:51:39;12;12;
61592;PMS5003;70568;51.378;-1.342;2024-01-25T08:54:06;14;13;
61592;PMS5003;70568;51.378;-1.342;2024-01-25T08:56:33;12;10;
61592;PMS5003;70568;51.378;-1.342;2024-01-25T08:59:00;17;14;
61592;PMS5003;70568;51.378;-1.342;2024-01-25T09:01:27;14;13;
61592;PMS5003;70568;51.378;-1.342;2024-01-25T09:03:53;12;10;
61592;PMS5003;70568;51.378;-1.342;2024-01-25T09:06:20;18;16;
61592;PMS5003;70568;51.378;-1.342;2024-01-25T09:08:47;11;10;
61592;PMS5003;70568;51.378;-1.342;2024-01-25T09:11:13;13;11;
61592;PMS5003;70568;51.378;-1.342;2024-01-25T09:13:40;9;9;
61592;PMS5003;70568;51.378;-1.342;2024-01-25T09:16:07;10;10;
61592;PMS5003;70568;51.378;-1.342;2024-01-25T09:18:33;7;7;
61592;PMS5003;70568;51.378;-1.342;2024-01-25T09:21:00;8;6;
61592;PMS5003;70568;51.378;-1.342;2024-01-25T09:23:27;8;8;
61592;PMS5003;70568;51.378;-1.342;2024-01-25T09:25:55;10;8;
61592;PMS5003;70568;51.378;-1.342;2024-01-25T09:28:22;14;12;
61592;PMS5003;70568;51.378;-1.342;2024-01-25T09:30:49;12;9;
61592;PMS5003;70568;51.378;-1.342;2024-01-25T09:33:15;15;10;
61592;PMS5003;70568;51.378;-1.342;2024-01-25T09:35:42;8;8;
61592;PMS5003;70568;51.378;-1.342;2024-01-25T09:38:09;10;9;
61592;PMS5003;70568;51.378;-1.342;2024-01-25T09:40:36;11;9;
61592;PMS5003;70568;51.378;-1.342;2024-01-25T09:43:03;8;7;
61592;PMS5003;70568;51.378;-1.342;2024-01-25T09:45:30;5;5;
61592;PMS5003;70568;51.378;-1.342;2024-01-25T09:47:58;7;6;
61592;PMS5003;70568;51.378;-1.342;2024-01-25T09:50:25;10;8;
61592;PMS5003;70568;51.378;-1.342;2024-01-25T09:52:53;6;6;
61592;PMS5003;70568;51.378;-1.342;2024-01-25T09:55:22;11;7;
61592;PMS5003;70568;51.378;-1.342;2024-01-25T09:57:52;9;8;
61592;PMS5003;70568;51.378;-1.342;2024-01-25T10:00:20;7;7;
61592;PMS5003;70568;51.378;-1.342;2024-01-25T10:02:47;10;6;
61592;PMS5003;70568;51.378;-1.342;2024-01-25T10:05:14;10;9;
61592;PMS5003;70568;51.378;-1.342;2024-01-25T10:07:41;7;6;
61592;PMS5003;70568;51.378;-1.342;2024-01-25T10:10:09;5;5;
61592;PMS5003;70568;51.378;-1.342;2024-01-25T10:12:36;7;7;
61592;PMS5003;70568;51.378;-1.342;2024-01-25T10:15:04;6;4;
61592;PMS5003;70568;51.378;-1.342;2024-01-25T10:17:31;7;7;
61592;PMS5003;70568;51.378;-1.342;2024-01-25T10:19:58;12;9;
61592;PMS5003;70568;51.378;-1.342;2024-01-25T10:22:25;8;7;
61592;PMS5003;70568;51.378;-1.342;2024-01-25T10:24:52;9;8;
61592;PMS5003;70568;51.378;-1.342;2024-01-25T10:27:19;6;5;
61592;PMS5003;70568;51.378;-1.342;2024-01-25T10:29:47;7;6;
61592;PMS5003;70568;51.378;-1.342;2024-01-25T10:32:14;7;5;
61592;PMS5003;70568;51.378;-1.342;2024-01-25T10:34:41;5;4;
61592;PMS5003;70568;51.378;-1.342;2024-01-25T10:37:11;4;4;
61592;PMS5003;70568;51.378;-1.342;2024-01-25T10:39:40;5;5;
61592;PMS5003;70568;51.378;-1.342;2024-01-25T10:42:07;6;6;
61592;PMS5003;70568;51.378;-1.342;2024-01-25T10:44:34;5;4;
61592;PMS5003;70568;51.378;-1.342;2024-01-25T10:47:01;6;5;
61592;PMS5003;70568;51.378;-1.342;2024-01-25T10:49:27;5;5;
61592;PMS5003;70568;51.378;-1.342;2024-01-25T10:51:56;5;5;
61592;PMS5003;70568;51.378;-1.342;2024-01-25T10:54:23;6;5;
61592;PMS5003;70568;51.378;-1.342;2024-01-25T10:56:51;6;5;
61592;PMS5003;70568;51.378;-1.342;2024-01-25T10:59:19;7;5;
61592;PMS5003;70568;51.378;-1.342;2024-01-25T11:01:46;9;8;
61592;PMS5003;70568;51.378;-1.342;2024-01-25T11:04:13;4;4;
61592;PMS5003;70568;51.378;-1.342;2024-01-25T11:06:43;6;5;
61592;PMS5003;70568;51.378;-1.342;2024-01-25T11:09:11;4;4;
61592;PMS5003;70568;51.378;-1.342;2024-01-25T11:11:44;5;5;
61592;PMS5003;70568;51.378;-1.342;2024-01-25T11:14:13;11;9;
61592;PMS5003;70568;51.378;-1.342;2024-01-25T11:16:40;5;4;
61592;PMS5003;70568;51.378;-1.342;2024-01-25T11:19:07;4;4;
61592;PMS5003;70568;51.378;-1.342;2024-01-25T11:21:41;7;5;
61592;PMS5003;70568;51.378;-1.342;2024-01-25T11:24:11;6;5;
61592;PMS5003;70568;51.378;-1.342;2024-01-25T11:26:39;6;4;
61592;PMS5003;70568;51.378;-1.342;2024-01-25T11:29:10;8;6;
61592;PMS5003;70568;51.378;-1.342;2024-01-25T11:31:39;6;5;
61592;PMS5003;70568;51.378;-1.342;2024-01-25T11:34:06;6;4;
61592;PMS5003;70568;51.378;-1.342;2024-01-25T11:36:32;7;6;
61592;PMS5003;70568;51.378;-1.342;2024-01-25T11:38:59;5;5;
61592;PMS5003;70568;51.378;-1.342;2024-01-25T11:41:25;8;7;
61592;PMS5003;70568;51.378;-1.342;2024-01-25T11:43:52;4;3;
61592;PMS5003;70568;51.378;-1.342;2024-01-25T11:46:20;8;6;
61592;PMS5003;70568;51.378;-1.342;2024-01-25T11:48:47;4;3;
61592;PMS5003;70568;51.378;-1.342;2024-01-25T11:51:14;4;3;
61592;PMS5003;70568;51.378;-1.342;2024-01-25T11:53:40;4;4;
61592;PMS5003;70568;51.378;-1.342;2024-01-25T11:56:08;3;2;
61592;PMS5003;70568;51.378;-1.342;2024-01-25T11:58:37;3;2;
61592;PMS5003;70568;51.378;-1.342;2024-01-25T12:01:05;3;3;
61592;PMS5003;70568;51.378;-1.342;2024-01-25T12:03:32;3;3;
61592;PMS5003;70568;51.378;-1.342;2024-01-25T12:05:59;4;3;
61592;PMS5003;70568;51.378;-1.342;2024-01-25T12:08:26;3;3;
61592;PMS5003;70568;51.378;-1.342;2024-01-25T12:11:02;2;2;
61592;PMS5003;70568;51.378;-1.342;2024-01-25T12:13:31;3;2;
61592;PMS5003;70568;51.378;-1.342;2024-01-25T12:15:58;2;2;
61592;PMS5003;70568;51.378;-1.342;2024-01-25T12:18:25;2;2;
61592;PMS5003;70568;51.378;-1.342;2024-01-25T12:20:52;3;1;
61592;PMS5003;70568;51.378;-1.342;2024-01-25T12:23:19;4;4;
61592;PMS5003;70568;51.378;-1.342;2024-01-25T12:25:46;3;3;
61592;PMS5003;70568;51.378;-1.342;2024-01-25T12:28:13;2;1;
61592;PMS5003;70568;51.378;-1.342;2024-01-25T12:30:40;2;2;
61592;PMS5003;70568;51.378;-1.342;2024-01-25T12:33:07;2;2;
61592;PMS5003;70568;51.378;-1.342;2024-01-25T12:35:33;3;2;
61592;PMS5003;70568;51.378;-1.342;2024-01-25T12:38:00;2;2;
61592;PMS5003;70568;51.378;-1.342;2024-01-25T12:40:26;4;3;
61592;PMS5003;70568;51.378;-1.342;2024-01-25T12:42:53;3;1;
61592;PMS5003;70568;51.378;-1.342;2024-01-25T12:45:20;2;1;
61592;PMS5003;70568;51.378;-1.342;2024-01-25T12:47:46;2;2;
61592;PMS5003;70568;51.378;-1.342;2024-01-25T12:50:13;2;2;
61592;PMS5003;70568;51.378;-1.342;2024-01-25T12:52:39;1;1;
61592;PMS5003;70568;51.378;-1.342;2024-01-25T12:55:06;1;1;
61592;PMS5003;70568;51.378;-1.342;2024-01-25T12:57:34;0;0;
61592;PMS5003;70568;51.378;-1.342;2024-01-25T13:00:00;1;1;
61592;PMS5003;70568;51.378;-1.342;2024-01-25T13:02:27;0;0;
61592;PMS5003;70568;51.378;-1.342;2024-01-25T13:04:53;2;1;
61592;PMS5003;70568;51.378;-1.342;2024-01-25T13:07:20;1;0;
61592;PMS5003;70568;51.378;-1.342;2024-01-25T13:09:47;0;0;
61592;PMS5003;70568;51.378;-1.342;2024-01-25T13:12:13;0;0;
61592;PMS5003;70568;51.378;-1.342;2024-01-25T13:14:40;1;1;
61592;PMS5003;70568;51.378;-1.342;2024-01-25T13:17:06;2;1;
61592;PMS5003;70568;51.378;-1.342;2024-01-25T13:19:33;2;1;
61592;PMS5003;70568;51.378;-1.342;2024-01-25T13:22:00;2;2;
61592;PMS5003;70568;51.378;-1.342;2024-01-25T13:24:27;3;2;
61592;PMS5003;70568;51.378;-1.342;2024-01-25T13:26:54;1;1;
61592;PMS5003;70568;51.378;-1.342;2024-01-25T13:29:21;2;2;
61592;PMS5003;70568;51.378;-1.342;2024-01-25T13:31:48;4;3;
61592;PMS5003;70568;51.378;-1.342;2024-01-25T13:34:15;3;2;
61592;PMS5003;70568;51.378;-1.342;2024-01-25T13:36:41;2;2;
61592;PMS5003;70568;51.378;-1.342;2024-01-25T13:39:07;3;3;
61592;PMS5003;70568;51.378;-1.342;2024-01-25T13:41:34;2;1;
61592;PMS5003;70568;51.378;-1.342;2024-01-25T13:44:00;2;1;
61592;PMS5003;70568;51.378;-1.342;2024-01-25T13:46:27;3;2;
61592;PMS5003;70568;51.378;-1.342;2024-01-25T13:48:54;4;2;
61592;PMS5003;70568;51.378;-1.342;2024-01-25T13:51:22;4;2;
61592;PMS5003;70568;51.378;-1.342;2024-01-25T13:53:48;2;2;
61592;PMS5003;70568;51.378;-1.342;2024-01-25T13:56:15;4;4;
61592;PMS5003;70568;51.378;-1.342;2024-01-25T13:58:41;2;1;
61592;PMS5003;70568;51.378;-1.342;2024-01-25T14:01:07;2;2;
61592;PMS5003;70568;51.378;-1.342;2024-01-25T14:03:34;1;1;
61592;PMS5003;70568;51.378;-1.342;2024-01-25T14:06:01;1;1;
61592;PMS5003;70568;51.378;-1.342;2024-01-25T14:08:28;2;0;
61592;PMS5003;70568;51.378;-1.342;2024-01-25T14:10:55;1;1;
61592;PMS5003;70568;51.378;-1.342;2024-01-25T14:13:23;2;2;
61592;PMS5003;70568;51.378;-1.342;2024-01-25T14:15:50;2;2;
61592;PMS5003;70568;51.378;-1.342;2024-01-25T14:18:16;2;2;
61592;PMS5003;70568;51.378;-1.342;2024-01-25T14:20:43;1;1;
61592;PMS5003;70568;51.378;-1.342;2024-01-25T14:23:09;5;4;
61592;PMS5003;70568;51.378;-1.342;2024-01-25T14:25:36;1;1;
61592;PMS5003;70568;51.378;-1.342;2024-01-25T14:28:02;2;2;
61592;PMS5003;70568;51.378;-1.342;2024-01-25T14:30:30;2;2;
61592;PMS5003;70568;51.378;-1.342;2024-01-25T14:32:56;3;3;
61592;PMS5003;70568;51.378;-1.342;2024-01-25T14:35:23;2;2;
61592;PMS5003;70568;51.378;-1.342;2024-01-25T14:37:50;3;3;
61592;PMS5003;70568;51.378;-1.342;2024-01-25T14:40:16;3;3;
61592;PMS5003;70568;51.378;-1.342;2024-01-25T14:42:44;2;2;
61592;PMS5003;70568;51.378;-1.342;2024-01-25T14:45:10;1;1;
61592;PMS5003;70568;51.378;-1.342;2024-01-25T14:47:36;4;3;
61592;PMS5003;70568;51.378;-1.342;2024-01-25T14:50:03;3;3;
61592;PMS5003;70568;51.378;-1.342;2024-01-25T14:52:30;2;2;
61592;PMS5003;70568;51.378;-1.342;2024-01-25T14:54:57;1;1;
61592;PMS5003;70568;51.378;-1.342;2024-01-25T14:57:23;5;2;
61592;PMS5003;70568;51.378;-1.342;2024-01-25T14:59:50;2;2;
61592;PMS5003;70568;51.378;-1.342;2024-01-25T15:02:16;2;2;
61592;PMS5003;70568;51.378;-1.342;2024-01-25T15:04:43;2;2;
61592;PMS5003;70568;51.378;-1.342;2024-01-25T15:07:09;2;2;
61592;PMS5003;70568;51.378;-1.342;2024-01-25T15:09:36;1;1;
61592;PMS5003;70568;51.378;-1.342;2024-01-25T15:12:04;0;0;
61592;PMS5003;70568;51.378;-1.342;2024-01-25T15:14:31;2;2;
61592;PMS5003;70568;51.378;-1.342;2024-01-25T15:16:58;1;0;
61592;PMS5003;70568;51.378;-1.342;2024-01-25T15:19:26;2;2;
61592;PMS5003;70568;51.378;-1.342;2024-01-25T15:21:52;3;2;
61592;PMS5003;70568;51.378;-1.342;2024-01-25T15:24:19;1;1;
61592;PMS5003;70568;51.378;-1.342;2024-01-25T15:26:46;1;1;
61592;PMS5003;70568;51.378;-1.342;2024-01-25T15:29:12;1;1;
61592;PMS5003;70568;51.378;-1.342;2024-01-25T15:31:39;2;2;
61592;PMS5003;70568;51.378;-1.342;2024-01-25T15:34:06;2;2;
61592;PMS5003;70568;51.378;-1.342;2024-01-25T15:36:32;1;1;
61592;PMS5003;70568;51.378;-1.342;2024-01-25T15:38:59;3;2;
61592;PMS5003;70568;51.378;-1.342;2024-01-25T15:41:25;3;2;
61592;PMS5003;70568;51.378;-1.342;2024-01-25T15:43:52;1;1;
61592;PMS5003;70568;51.378;-1.342;2024-01-25T15:46:18;2;2;
61592;PMS5003;70568;51.378;-1.342;2024-01-25T15:48:45;2;2;
61592;PMS5003;70568;51.378;-1.342;2024-01-25T15:51:11;3;3;
61592;PMS5003;70568;51.378;-1.342;2024-01-25T15:53:39;2;2;
61592;PMS5003;70568;51.378;-1.342;2024-01-25T15:56:06;6;6;
61592;PMS5003;70568;51.378;-1.342;2024-01-25T15:58:32;1;1;
61592;PMS5003;70568;51.378;-1.342;2024-01-25T16:00:59;3;2;
61592;PMS5003;70568;51.378;-1.342;2024-01-25T16:03:25;4;4;
61592;PMS5003;70568;51.378;-1.342;2024-01-25T16:05:52;4;4;
61592;PMS5003;70568;51.378;-1.342;2024-01-25T16:08:19;5;4;
61592;PMS5003;70568;51.378;-1.342;2024-01-25T16:10:46;1;1;
61592;PMS5003;70568;51.378;-1.342;2024-01-25T16:13:13;2;2;
61592;PMS5003;70568;51.378;-1.342;2024-01-25T16:15:43;0;0;
61592;PMS5003;70568;51.378;-1.342;2024-01-25T16:18:10;2;2;
61592;PMS5003;70568;51.378;-1.342;2024-01-25T16:20:36;2;2;
61592;PMS5003;70568;51.378;-1.342;2024-01-25T16:23:03;3;3;